Time;durP1;ratioP1;P1;durP2;ratioP2;P2;SDS_P1;SDS_P2;PMS_P1;PMS_P2;Temp;Humidity;BMP_temperature;BMP_pressure;BME280_temperature;BME280_humidity;BME280_pressure;Samples;Min_cycle;Max_cycle;Signal;HPM_P1;HPM_P2
2021/08/05 00:03:25;;;;;;;7.05;3.95;;;16.00;99.90;;;;;;12548535;28;20056;-87
2021/08/05 00:09:27;;;;;;;7.40;2.65;;;16.00;99.90;;;;;;12530244;28;20092;-87
2021/08/05 00:15:29;;;;;;;5.20;3.13;;;15.60;99.90;;;;;;12528227;28;20090;-87
2021/08/05 00:21:30;;;;;;;5.00;3.30;;;15.80;99.90;;;;;;12538085;28;20057;-88
2021/08/05 00:27:32;;;;;;;4.00;3.03;;;15.60;99.90;;;;;;12540458;28;20182;-87
2021/08/05 00:33:34;;;;;;;5.65;3.38;;;15.50;99.90;;;;;;12537892;28;20462;-87
2021/08/05 00:39:36;;;;;;;5.32;3.40;;;15.50;99.90;;;;;;12522621;28;20116;-87
2021/08/05 00:45:38;;;;;;;4.78;3.00;;;15.60;99.90;;;;;;12521655;28;22770;-87
2021/08/05 00:51:40;;;;;;;3.80;2.78;;;15.50;99.90;;;;;;12525530;28;20037;-87
2021/08/05 00:57:42;;;;;;;5.50;3.40;;;15.40;99.90;;;;;;12533445;28;20662;-86
2021/08/05 01:03:49;;;;;;;5.57;3.38;;;15.50;99.90;;;;;;12536843;28;20046;-87
2021/08/05 01:10:02;;;;;;;5.68;3.25;;;15.30;99.90;;;;;;12539125;28;20091;-87
2021/08/05 01:16:11;;;;;;;4.18;3.15;;;15.30;99.90;;;;;;12529011;28;20522;-87
2021/08/05 01:22:21;;;;;;;5.20;3.35;;;15.30;99.90;;;;;;12526598;28;20045;-87
2021/08/05 01:28:24;;;;;;;5.05;2.97;;;15.40;99.90;;;;;;12526087;28;20045;-87
2021/08/05 01:34:27;;;;;;;4.75;3.53;;;15.30;99.90;;;;;;12524277;28;20050;-87
2021/08/05 01:40:30;;;;;;;4.65;3.53;;;15.20;99.90;;;;;;12552521;28;20068;-87
2021/08/05 01:46:32;;;;;;;5.10;4.00;;;15.10;99.90;;;;;;12565818;28;20110;-87
2021/08/05 01:52:35;;;;;;;6.50;5.30;;;15.20;99.90;;;;;;12534355;28;20531;-87
2021/08/05 01:58:38;;;;;;;6.13;4.17;;;15.00;99.90;;;;;;12526687;28;20097;-87
2021/08/05 02:04:45;;;;;;;5.47;3.83;;;15.10;99.90;;;;;;12530133;28;20074;-87
2021/08/05 02:10:50;;;;;;;5.10;3.75;;;15.10;99.90;;;;;;12529040;28;20463;-87
2021/08/05 02:16:53;;;;;;;8.20;4.10;;;15.20;99.90;;;;;;12532147;28;20056;-87
2021/08/05 02:22:55;;;;;;;14.93;4.53;;;15.20;99.90;;;;;;12539186;28;20044;-87
2021/08/05 02:28:58;;;;;;;4.65;4.03;;;15.10;99.90;;;;;;12535168;28;20049;-87
2021/08/05 02:35:03;;;;;;;5.43;4.53;;;15.20;99.90;;;;;;12539205;28;20045;-87
2021/08/05 02:41:06;;;;;;;6.90;4.78;;;15.10;99.90;;;;;;12522175;28;20202;-87
2021/08/05 02:54:35;;;;;;;5.30;4.38;;;15.10;99.90;;;;;;12528339;28;20082;-87
2021/08/05 03:00:37;;;;;;;5.47;4.57;;;15.10;99.90;;;;;;12525060;28;20049;-87
2021/08/05 03:06:40;;;;;;;9.10;4.10;;;15.10;99.90;;;;;;12531008;28;20053;-86
2021/08/05 03:12:43;;;;;;;10.07;4.38;;;15.10;99.90;;;;;;12527864;28;20045;-87
2021/08/05 03:18:45;;;;;;;7.13;5.00;;;15.10;99.90;;;;;;12544135;28;20053;-87
2021/08/05 03:24:47;;;;;;;6.80;4.47;;;15.20;99.90;;;;;;12541946;28;20045;-87
2021/08/05 03:30:48;;;;;;;6.50;4.95;;;15.10;99.90;;;;;;12541849;28;20187;-87
2021/08/05 03:36:50;;;;;;;5.95;4.80;;;15.20;99.90;;;;;;12546832;28;20082;-87
2021/08/05 03:42:52;;;;;;;8.15;5.00;;;14.80;99.90;;;;;;12536718;28;20065;-87
2021/08/05 03:48:54;;;;;;;8.73;5.63;;;15.00;99.90;;;;;;12546313;28;20140;-87
2021/08/05 03:54:56;;;;;;;6.70;6.00;;;14.90;99.90;;;;;;12540797;28;20170;-87
2021/08/05 04:00:58;;;;;;;7.88;5.45;;;14.90;99.90;;;;;;12551235;28;20090;-87
2021/08/05 04:07:00;;;;;;;7.43;6.05;;;15.00;99.90;;;;;;12539866;28;20082;-87
2021/08/05 04:13:01;;;;;;;8.20;6.47;;;14.90;99.90;;;;;;12541031;28;20090;-87
2021/08/05 04:19:03;;;;;;;9.18;6.45;;;15.00;99.90;;;;;;12546207;28;20041;-87
2021/08/05 04:25:06;;;;;;;8.07;6.75;;;14.90;99.90;;;;;;12537088;28;20101;-87
2021/08/05 04:31:08;;;;;;;7.25;6.10;;;14.90;99.90;;;;;;12534094;28;20132;-87
2021/08/05 04:37:10;;;;;;;8.23;5.68;;;14.90;99.90;;;;;;12539208;28;20171;-87
2021/08/05 04:43:11;;;;;;;8.68;6.32;;;15.00;99.90;;;;;;12530075;28;20642;-87
2021/08/05 04:49:13;;;;;;;8.70;7.00;;;15.00;99.90;;;;;;12537249;28;20040;-87
2021/08/05 04:55:15;;;;;;;11.13;6.95;;;15.10;99.90;;;;;;12548917;28;20049;-88
2021/08/05 05:01:17;;;;;;;7.50;6.60;;;15.10;99.90;;;;;;12552719;28;20357;-87
2021/08/05 05:07:19;;;;;;;9.25;7.35;;;15.20;99.90;;;;;;12559511;28;20132;-88
2021/08/05 05:13:21;;;;;;;11.02;7.88;;;15.40;99.90;;;;;;12561168;28;20371;-87
2021/08/05 05:19:24;;;;;;;10.48;8.82;;;15.00;99.90;;;;;;12546424;28;20068;-88
2021/08/05 05:25:26;;;;;;;11.50;8.18;;;15.20;99.90;;;;;;12551411;28;20092;-88
2021/08/05 05:31:28;;;;;;;11.13;8.57;;;15.30;99.90;;;;;;12550071;28;20049;-87
2021/08/05 05:37:30;;;;;;;11.30;10.00;;;15.50;99.90;;;;;;12556629;28;20060;-87
2021/08/05 05:43:32;;;;;;;10.45;7.90;;;15.50;99.90;;;;;;12555141;28;20064;-88
2021/08/05 05:49:34;;;;;;;11.35;8.65;;;15.40;99.90;;;;;;12551820;28;20044;-88
2021/08/05 05:55:39;;;;;;;13.23;8.57;;;15.70;99.90;;;;;;12574049;28;20161;-88
2021/08/05 06:01:41;;;;;;;9.13;8.20;;;15.60;99.90;;;;;;12555701;28;20052;-87
2021/08/05 06:07:49;;;;;;;9.25;7.68;;;16.00;99.90;;;;;;12551177;28;20428;-87
2021/08/05 06:13:51;;;;;;;10.10;8.93;;;15.90;99.90;;;;;;12548609;28;20092;-87
2021/08/05 06:19:53;;;;;;;11.15;9.98;;;16.00;99.90;;;;;;12547411;28;20045;-88
2021/08/05 06:25:56;;;;;;;11.70;9.88;;;16.10;99.90;;;;;;12553745;28;20544;-87
2021/08/05 06:31:58;;;;;;;12.43;9.50;;;16.00;99.90;;;;;;12577983;28;20044;-88
2021/08/05 06:38:00;;;;;;;13.60;9.45;;;16.20;99.90;;;;;;12567647;28;20159;-88
2021/08/05 06:44:02;;;;;;;9.35;8.07;;;16.50;99.90;;;;;;12552005;28;20102;-88
2021/08/05 06:50:04;;;;;;;12.52;10.82;;;16.50;99.90;;;;;;12563649;28;20508;-88
2021/08/05 06:56:06;;;;;;;11.20;8.88;;;16.50;99.90;;;;;;12557204;28;20052;-88
2021/08/05 07:02:08;;;;;;;10.98;8.82;;;16.80;99.90;;;;;;12558674;28;20099;-88
2021/08/05 07:08:10;;;;;;;11.15;8.98;;;17.00;99.90;;;;;;12560683;28;20081;-88
2021/08/05 07:14:12;;;;;;;9.52;8.52;;;17.00;99.90;;;;;;12560047;28;20045;-88
2021/08/05 07:20:17;;;;;;;8.30;7.43;;;17.10;99.90;;;;;;12568895;28;20505;-88
2021/08/05 07:26:19;;;;;;;10.10;7.13;;;17.30;99.90;;;;;;12561540;28;20048;-87
2021/08/05 07:32:21;;;;;;;9.88;7.40;;;17.50;99.90;;;;;;12568166;28;20673;-88
2021/08/05 07:38:23;;;;;;;7.28;6.15;;;17.50;99.90;;;;;;12563276;28;20660;-88
2021/08/05 07:44:25;;;;;;;8.70;7.47;;;17.60;99.90;;;;;;12552902;28;20048;-88
2021/08/05 07:50:30;;;;;;;13.25;8.35;;;17.80;99.90;;;;;;12562093;28;20041;-88
2021/08/05 07:56:32;;;;;;;8.55;7.65;;;17.90;99.90;;;;;;12545635;28;20093;-87
2021/08/05 08:02:34;;;;;;;10.15;8.20;;;18.00;99.90;;;;;;12551110;28;20183;-89
2021/08/05 08:08:36;;;;;;;11.45;8.15;;;18.00;99.90;;;;;;12552826;28;20069;-87
2021/08/05 08:14:38;;;;;;;8.98;7.95;;;18.00;99.90;;;;;;12560239;28;20049;-87
2021/08/05 08:20:39;;;;;;;9.98;8.77;;;18.10;99.90;;;;;;12554904;28;20049;-88
2021/08/05 08:26:41;;;;;;;9.27;7.57;;;18.10;99.90;;;;;;12551171;28;20596;-88
2021/08/05 08:32:44;;;;;;;10.70;7.53;;;18.10;99.90;;;;;;12552761;28;20071;-88
2021/08/05 08:38:49;;;;;;;9.32;8.32;;;18.00;99.90;;;;;;12557634;28;20608;-88
2021/08/05 08:44:51;;;;;;;8.60;7.10;;;18.10;99.90;;;;;;12551112;28;20053;-88
2021/08/05 08:50:54;;;;;;;9.18;7.65;;;18.30;99.90;;;;;;12540913;28;20135;-88
2021/08/05 08:56:56;;;;;;;8.83;7.60;;;18.60;99.90;;;;;;12537098;28;20128;-88
2021/08/05 09:02:59;;;;;;;8.02;6.35;;;18.50;99.90;;;;;;12530214;28;20497;-88
2021/08/05 09:09:04;;;;;;;9.63;7.20;;;18.60;99.90;;;;;;12536626;28;20063;-89
2021/08/05 09:15:09;;;;;;;7.82;5.75;;;18.60;99.90;;;;;;12534826;28;20298;-89
2021/08/05 09:21:15;;;;;;;10.60;6.47;;;18.70;99.90;;;;;;12540240;28;20496;-89
2021/08/05 09:27:31;;;;;;;7.85;6.30;;;19.60;99.90;;;;;;12517167;28;20061;-89
2021/08/05 09:33:33;;;;;;;10.38;6.70;;;19.30;99.90;;;;;;12525992;28;20149;-89
2021/08/05 09:39:40;;;;;;;6.72;5.72;;;19.30;99.90;;;;;;12533910;28;20083;-88
2021/08/05 09:45:42;;;;;;;7.32;5.30;;;19.50;99.90;;;;;;12529290;28;20127;-89
2021/08/05 09:51:54;;;;;;;6.22;4.82;;;19.90;99.90;;;;;;12526890;28;20268;-88
2021/08/05 09:57:56;;;;;;;8.75;4.78;;;20.00;99.90;;;;;;12526080;28;20048;-89
2021/08/05 10:04:26;;;;;;;4.90;3.80;;;20.00;99.90;;;;;;12526091;28;20041;-89
2021/08/05 10:10:49;;;;;;;4.35;3.28;;;20.30;99.90;;;;;;12524748;28;20048;-89
2021/08/05 10:16:52;;;;;;;4.87;3.23;;;20.80;99.90;;;;;;12549082;28;20080;-89
2021/08/05 10:22:58;;;;;;;5.73;3.17;;;20.70;99.90;;;;;;12540502;28;20193;-89
2021/08/05 10:29:00;;;;;;;4.00;2.75;;;20.60;99.90;;;;;;12525566;28;20049;-88
2021/08/05 10:35:03;;;;;;;6.07;2.90;;;20.90;99.90;;;;;;12534642;28;20045;-89
2021/08/05 10:41:06;;;;;;;4.13;3.10;;;20.80;99.90;;;;;;12530637;28;20049;-89
2021/08/05 10:47:12;;;;;;;3.35;2.50;;;21.00;99.90;;;;;;12526556;28;20098;-89
2021/08/05 10:53:44;;;;;;;3.10;2.20;;;20.90;99.90;;;;;;12527022;28;20120;-89
2021/08/05 11:00:08;;;;;;;3.63;2.70;;;20.60;99.90;;;;;;12552785;28;20049;-89
2021/08/05 11:06:22;;;;;;;;;;;20.50;99.90;;;;;;12541784;28;20052;-89
2021/08/05 11:12:40;;;;;;;3.50;2.80;;;20.60;99.90;;;;;;12519688;28;19924;-89
2021/08/05 11:18:42;;;;;;;6.20;3.10;;;20.60;99.90;;;;;;12527697;28;20583;-88
2021/08/05 11:24:47;;;;;;;5.18;3.10;;;20.90;99.90;;;;;;12525360;28;20045;-89
2021/08/05 11:30:50;;;;;;;3.72;2.70;;;21.00;99.90;;;;;;12543087;28;20041;-88
2021/08/05 11:37:08;;;;;;;8.43;3.47;;;20.40;99.90;;;;;;12533533;28;20157;-89
2021/08/05 11:43:20;;;;;;;3.55;2.50;;;20.10;99.90;;;;;;12537918;28;20101;-88
2021/08/05 11:49:47;;;;;;;3.97;2.25;;;21.10;99.90;;;;;;12522536;28;20135;-88
2021/08/05 11:55:51;;;;;;;3.45;2.08;;;21.00;99.90;;;;;;12532627;28;20071;-89
2021/08/05 12:02:09;;;;;;;4.10;2.15;;;20.90;99.90;;;;;;12531669;28;20037;-89
2021/08/05 12:08:13;;;;;;;4.32;2.70;;;21.00;99.90;;;;;;12533636;28;20140;-89
2021/08/05 12:14:14;;;;;;;4.00;2.50;;;21.40;99.90;;;;;;12528323;28;20040;-89
2021/08/05 12:20:18;;;;;;;5.82;2.40;;;21.20;99.90;;;;;;12532547;28;20447;-89
2021/08/05 12:26:24;;;;;;;;;;;20.80;99.90;;;;;;12531590;28;20662;-89
2021/08/05 12:32:26;;;;;;;4.50;2.20;;;20.60;99.90;;;;;;12531312;28;19931;-89
2021/08/05 12:38:29;;;;;;;3.95;2.45;;;20.40;99.90;;;;;;12528526;28;20061;-89
2021/08/05 12:44:33;;;;;;;3.03;2.17;;;20.30;99.90;;;;;;12530174;28;20048;-89
2021/08/05 12:50:46;;;;;;;3.28;2.00;;;20.20;99.90;;;;;;12522520;28;20045;-89
2021/08/05 12:56:56;;;;;;;3.05;2.03;;;19.90;99.90;;;;;;12530766;28;20132;-89
2021/08/05 13:03:00;;;;;;;7.03;2.65;;;19.90;99.90;;;;;;12520829;28;20147;-89
2021/08/05 13:09:07;;;;;;;2.35;1.67;;;19.90;99.90;;;;;;12516187;28;20956;-89
2021/08/05 13:15:30;;;;;;;2.80;1.60;;;19.70;99.90;;;;;;12528302;28;20679;-89
2021/08/05 13:21:34;;;;;;;2.83;1.77;;;19.70;99.90;;;;;;12529173;28;20062;-90
2021/08/05 13:27:37;;;;;;;2.10;1.48;;;19.60;99.90;;;;;;12564173;28;20049;-90
2021/08/05 13:33:39;;;;;;;7.33;2.50;;;19.40;99.90;;;;;;12511184;28;20075;-86
2021/08/05 13:39:52;;;;;;;11.18;4.20;;;19.00;99.90;;;;;;12540655;28;20152;-88
2021/08/05 13:45:54;;;;;;;8.57;4.38;;;18.40;99.90;;;;;;12543990;28;20182;-88
2021/08/05 13:51:56;;;;;;;6.95;4.18;;;17.90;99.90;;;;;;12553219;28;20049;-88
2021/08/05 13:57:58;;;;;;;6.22;3.15;;;17.80;99.90;;;;;;12549808;28;20068;-87
2021/08/05 14:04:00;;;;;;;4.55;2.90;;;17.60;99.90;;;;;;12551399;28;20109;-88
2021/08/05 14:10:03;;;;;;;4.15;2.70;;;17.40;99.90;;;;;;12532685;28;20467;-89
2021/08/05 14:16:05;;;;;;;5.17;2.50;;;17.50;99.90;;;;;;12525083;28;20105;-89
2021/08/05 14:22:07;;;;;;;3.35;2.30;;;17.60;99.90;;;;;;12530937;28;20155;-87
2021/08/05 14:28:09;;;;;;;4.57;2.50;;;17.80;99.90;;;;;;12541456;28;21046;-88
2021/08/05 14:34:11;;;;;;;3.40;2.05;;;18.00;99.90;;;;;;12541370;28;20083;-88
2021/08/05 14:40:14;;;;;;;3.63;2.22;;;18.00;99.90;;;;;;12530381;28;20128;-88
2021/08/05 14:46:16;;;;;;;3.67;2.30;;;18.20;99.90;;;;;;12546203;28;20069;-86
2021/08/05 14:52:18;;;;;;;3.88;2.15;;;18.00;99.90;;;;;;12538998;28;20052;-87
2021/08/05 14:58:20;;;;;;;3.80;2.20;;;18.40;99.90;;;;;;12542697;28;20060;-87
2021/08/05 15:04:22;;;;;;;2.67;1.65;;;19.50;99.90;;;;;;12562659;28;20437;-87
2021/08/05 15:10:25;;;;;;;5.25;1.90;;;19.60;99.90;;;;;;12561348;28;20083;-87
2021/08/05 15:16:29;;;;;;;2.90;1.80;;;20.00;99.90;;;;;;12566607;28;20049;-87
2021/08/05 15:22:31;;;;;;;2.53;1.50;;;19.90;99.90;;;;;;12566129;28;20451;-87
2021/08/05 15:28:33;;;;;;;2.28;1.30;;;20.10;99.90;;;;;;12555604;28;20041;-88
2021/08/05 15:34:35;;;;;;;1.40;1.05;;;20.60;99.90;;;;;;12544707;28;20040;-87
2021/08/05 15:40:37;;;;;;;2.10;1.30;;;20.60;99.90;;;;;;12545688;28;20040;-88
2021/08/05 15:46:39;;;;;;;3.25;1.45;;;21.00;99.90;;;;;;12547870;28;20536;-87
2021/08/05 15:52:41;;;;;;;2.88;1.42;;;21.30;99.90;;;;;;12555549;28;20067;-88
2021/08/05 15:58:44;;;;;;;2.30;1.27;;;21.30;99.90;;;;;;12560626;28;20417;-87
2021/08/05 16:04:46;;;;;;;2.00;1.60;;;21.30;99.90;;;;;;12556735;28;20076;-87
2021/08/05 16:10:49;;;;;;;2.45;1.30;;;21.70;99.90;;;;;;12550182;28;20061;-88
2021/08/05 16:16:51;;;;;;;2.75;1.10;;;21.60;99.90;;;;;;12557899;28;20066;-87
2021/08/05 16:22:54;;;;;;;3.03;1.30;;;21.20;99.90;;;;;;12559609;28;20040;-88
2021/08/05 16:28:56;;;;;;;1.40;1.02;;;21.20;99.90;;;;;;12557254;28;20490;-88
2021/08/05 16:34:58;;;;;;;1.70;1.00;;;21.00;99.90;;;;;;12569568;28;20044;-88
2021/08/05 16:41:00;;;;;;;1.90;0.95;;;20.90;99.90;;;;;;12570196;28;20616;-87
2021/08/05 16:47:04;;;;;;;1.38;0.85;;;20.70;99.90;;;;;;12571208;28;20044;-88
2021/08/05 16:53:06;;;;;;;3.10;1.00;;;20.80;99.90;;;;;;12544361;28;20040;-88
2021/08/05 16:59:09;;;;;;;2.58;0.80;;;20.90;99.90;;;;;;12560856;28;20065;-87
2021/08/05 17:05:11;;;;;;;3.37;1.07;;;20.90;99.90;;;;;;12564177;28;20045;-88
2021/08/05 17:11:13;;;;;;;2.25;1.00;;;20.20;99.90;;;;;;12567854;28;20025;-88
2021/08/05 17:17:15;;;;;;;2.05;0.88;;;19.70;99.90;;;;;;12563501;28;20045;-88
2021/08/05 17:23:17;;;;;;;1.98;1.08;;;19.60;99.90;;;;;;12563637;28;20108;-88
2021/08/05 17:29:19;;;;;;;2.33;0.90;;;20.10;99.90;;;;;;12572289;28;20052;-88
2021/08/05 17:35:22;;;;;;;2.33;1.10;;;20.30;99.90;;;;;;12568687;28;20053;-88
2021/08/05 17:41:23;;;;;;;1.05;0.60;;;20.60;99.90;;;;;;12560995;28;20091;-88
2021/08/05 17:47:25;;;;;;;1.65;0.70;;;20.70;99.90;;;;;;12569069;28;20054;-88
2021/08/05 17:53:27;;;;;;;1.45;0.70;;;20.70;99.90;;;;;;12564054;28;20488;-88
2021/08/05 17:59:29;;;;;;;8.55;5.40;;;20.50;99.90;;;;;;12562923;28;20448;-88
2021/08/05 18:05:32;;;;;;;2.17;1.17;;;20.20;99.90;;;;;;12566473;28;20052;-88
2021/08/05 18:11:34;;;;;;;3.40;1.07;;;19.70;99.90;;;;;;12566660;28;20277;-88
2021/08/05 18:17:37;;;;;;;3.22;1.00;;;19.30;99.90;;;;;;12572788;28;20291;-88
2021/08/05 18:23:41;;;;;;;1.75;0.90;;;18.80;99.90;;;;;;12566458;28;20056;-88
2021/08/05 18:29:45;;;;;;;1.60;1.00;;;18.50;99.90;;;;;;12577526;28;20071;-88
2021/08/05 18:35:49;;;;;;;2.42;1.02;;;18.20;99.90;;;;;;12569720;28;20056;-88
2021/08/05 18:41:51;;;;;;;5.25;1.45;;;18.30;99.90;;;;;;12550368;28;20045;-88
2021/08/05 18:47:53;;;;;;;1.73;0.90;;;18.30;99.90;;;;;;12579076;28;20053;-88
2021/08/05 18:53:55;;;;;;;1.50;1.08;;;18.10;99.90;;;;;;12574036;28;20029;-88
2021/08/05 18:59:57;;;;;;;4.28;1.35;;;18.10;99.90;;;;;;12568151;28;20052;-88
2021/08/05 19:05:59;;;;;;;2.72;1.40;;;18.10;99.90;;;;;;12575343;28;20041;-88
2021/08/05 19:12:01;;;;;;;2.92;1.35;;;18.10;99.90;;;;;;12573700;28;20052;-88
2021/08/05 19:18:08;;;;;;;2.47;1.50;;;18.00;99.90;;;;;;12584262;28;20063;-88
2021/08/05 19:24:10;;;;;;;2.90;1.60;;;17.80;99.90;;;;;;12559539;28;20053;-88
2021/08/05 19:30:13;;;;;;;3.05;2.10;;;17.70;99.90;;;;;;12582551;28;20041;-88
2021/08/05 19:36:15;;;;;;;6.95;3.97;;;17.70;99.90;;;;;;12585555;28;20072;-87
2021/08/05 19:42:17;;;;;;;21.80;14.23;;;17.60;99.90;;;;;;12585339;28;20041;-87
2021/08/05 19:48:19;;;;;;;14.38;7.97;;;17.50;99.90;;;;;;12574357;28;20079;-86
2021/08/05 19:54:21;;;;;;;13.35;6.88;;;17.50;99.90;;;;;;12580273;28;20045;-87
2021/08/05 20:00:23;;;;;;;20.88;13.32;;;17.50;99.90;;;;;;12590282;28;20072;-87
2021/08/05 20:06:25;;;;;;;14.68;9.65;;;17.40;99.90;;;;;;12585335;28;20078;-87
2021/08/05 20:12:27;;;;;;;13.20;7.93;;;17.40;99.90;;;;;;12590729;28;20450;-86
2021/08/05 20:18:28;;;;;;;11.80;8.57;;;17.30;99.90;;;;;;12587184;28;20060;-87
2021/08/05 20:24:30;;;;;;;8.73;5.78;;;17.40;99.90;;;;;;12589816;28;20052;-87
2021/08/05 20:30:33;;;;;;;7.32;4.80;;;17.40;99.90;;;;;;12594947;28;20063;-87
2021/08/05 20:36:35;;;;;;;5.88;4.28;;;17.30;99.90;;;;;;12588653;28;20114;-86
2021/08/05 20:42:38;;;;;;;3.88;2.72;;;17.20;99.90;;;;;;12594042;28;20064;-87
2021/08/05 20:48:40;;;;;;;5.87;2.80;;;17.20;99.90;;;;;;12594451;28;20041;-87
2021/08/05 20:54:42;;;;;;;4.90;2.50;;;17.10;99.90;;;;;;12590242;28;20037;-87
2021/08/05 21:00:44;;;;;;;3.80;2.67;;;17.10;99.90;;;;;;12579559;28;20044;-87
2021/08/05 21:06:48;;;;;;;8.38;2.50;;;16.90;99.90;;;;;;12583981;28;20057;-86
2021/08/05 21:12:50;;;;;;;3.83;2.47;;;16.90;99.90;;;;;;12585772;28;20051;-86
2021/08/05 21:18:52;;;;;;;6.55;2.67;;;16.90;99.90;;;;;;12587235;28;20057;-87
2021/08/05 21:24:54;;;;;;;3.92;2.60;;;16.80;99.90;;;;;;12577298;28;20052;-87
2021/08/05 21:30:56;;;;;;;4.63;2.60;;;16.80;99.90;;;;;;12582974;28;20844;-86
2021/08/05 21:36:58;;;;;;;4.53;2.80;;;16.70;99.90;;;;;;12579021;28;20044;-86
2021/08/05 21:42:59;;;;;;;6.80;3.08;;;16.60;99.90;;;;;;12591117;28;20049;-86
2021/08/05 21:49:03;;;;;;;4.78;2.80;;;16.60;99.90;;;;;;12567508;28;20059;-87
2021/08/05 21:55:06;;;;;;;5.28;3.13;;;16.50;99.90;;;;;;12580360;28;20052;-87
2021/08/05 22:01:08;;;;;;;6.60;2.90;;;16.40;99.90;;;;;;12572344;28;20041;-86
2021/08/05 22:07:10;;;;;;;4.03;3.17;;;16.40;99.90;;;;;;12585975;28;20045;-86
2021/08/05 22:13:12;;;;;;;3.95;2.97;;;16.30;99.90;;;;;;12583869;28;20045;-86
2021/08/05 22:19:14;;;;;;;5.15;3.25;;;16.30;99.90;;;;;;12579430;28;20060;-86
2021/08/05 22:25:16;;;;;;;4.85;2.72;;;16.40;99.90;;;;;;12571702;28;20094;-86
2021/08/05 22:31:18;;;;;;;5.05;3.30;;;16.20;99.90;;;;;;12548411;28;20155;-86
2021/08/05 22:37:20;;;;;;;5.00;2.75;;;16.30;99.90;;;;;;12573221;28;20951;-86
2021/08/05 22:43:25;;;;;;;4.85;2.80;;;16.30;99.90;;;;;;12576826;28;20045;-86
2021/08/05 22:49:27;;;;;;;5.05;2.85;;;16.50;99.90;;;;;;12563831;28;20060;-85
2021/08/05 22:55:29;;;;;;;4.28;3.28;;;16.30;99.90;;;;;;12542856;28;20048;-85
2021/08/05 23:01:31;;;;;;;4.03;2.85;;;16.30;99.90;;;;;;12567279;28;20577;-86
2021/08/05 23:07:36;;;;;;;3.72;3.00;;;16.40;99.90;;;;;;12564331;28;20461;-85
2021/08/05 23:13:37;;;;;;;6.28;3.13;;;16.50;99.90;;;;;;12536182;28;20101;-86
2021/08/05 23:19:39;;;;;;;5.50;3.38;;;16.50;99.90;;;;;;12528031;28;20112;-86
2021/08/05 23:25:41;;;;;;;7.45;3.28;;;16.50;99.90;;;;;;12544427;28;20053;-86
2021/08/05 23:31:43;;;;;;;4.00;2.90;;;16.50;99.90;;;;;;12543759;28;20044;-86
2021/08/05 23:37:45;;;;;;;4.68;2.95;;;16.30;99.90;;;;;;12551788;28;20045;-85
2021/08/05 23:43:47;;;;;;;4.85;3.00;;;16.30;99.90;;;;;;12529232;28;20045;-86
2021/08/05 23:49:49;;;;;;;4.93;2.95;;;16.30;99.90;;;;;;12539071;28;20045;-86
2021/08/05 23:55:51;;;;;;;5.50;2.95;;;16.30;99.90;;;;;;12544842;28;20094;-86
